createdAt,value
2018-07-27T00:00:39.447Z,98198.31
2018-07-27T00:02:51.699Z,98203.55
2018-07-27T00:05:04.333Z,98196.42
2018-07-27T00:07:16.556Z,98200.22
2018-07-27T00:09:28.744Z,98201.17
2018-07-27T00:11:41.768Z,98198.39
2018-07-27T00:13:53.963Z,98197.19
2018-07-27T00:16:06.172Z,98194.20
2018-07-27T00:18:18.379Z,98185.06
2018-07-27T00:20:30.636Z,98186.48
2018-07-27T00:22:42.840Z,98189.70
2018-07-27T00:24:55.016Z,98188.98
2018-07-27T00:27:07.194Z,98199.78
2018-07-27T00:29:19.352Z,98196.16
2018-07-27T00:31:31.567Z,98202.09
2018-07-27T00:33:43.761Z,98199.45
2018-07-27T00:35:55.946Z,98191.41
2018-07-27T00:38:08.185Z,98189.48
2018-07-27T00:40:20.394Z,98180.44
2018-07-27T00:42:32.637Z,98182.06
2018-07-27T00:44:44.847Z,98187.81
2018-07-27T00:46:57.010Z,98187.66
2018-07-27T00:49:09.214Z,98191.20
2018-07-27T00:51:21.366Z,98186.86
2018-07-27T00:53:33.575Z,98187.73
2018-07-27T00:55:45.746Z,98189.09
2018-07-27T00:57:57.919Z,98185.30
2018-07-27T01:00:10.091Z,98180.09
2018-07-27T01:02:22.339Z,98180.91
2018-07-27T01:04:34.529Z,98186.51
2018-07-27T01:06:46.744Z,98181.20
2018-07-27T01:08:58.923Z,98188.00
2018-07-27T01:11:11.087Z,98186.51
2018-07-27T01:13:23.346Z,98185.02
2018-07-27T01:15:35.518Z,98187.03
2018-07-27T01:17:47.720Z,98179.42
2018-07-27T01:19:59.918Z,98183.05
2018-07-27T01:22:12.134Z,98185.16
2018-07-27T01:24:24.322Z,98183.12
2018-07-27T01:26:36.486Z,98185.11
2018-07-27T01:28:48.690Z,98178.84
2018-07-27T01:31:00.887Z,98183.42
2018-07-27T01:33:13.095Z,98180.63
2018-07-27T01:35:25.306Z,98184.71
2018-07-27T01:37:37.491Z,98182.23
2018-07-27T01:39:49.726Z,98188.80
2018-07-27T01:42:01.910Z,98184.35
2018-07-27T01:44:14.127Z,98181.32
2018-07-27T01:46:26.302Z,98186.23
2018-07-27T01:48:38.467Z,98185.20
2018-07-27T01:50:50.659Z,98183.06
2018-07-27T01:53:02.838Z,98181.25
2018-07-27T01:55:15.043Z,98179.61
2018-07-27T01:57:27.211Z,98181.22
2018-07-27T01:59:39.407Z,98186.30
2018-07-27T02:01:51.604Z,98185.63
2018-07-27T02:04:03.843Z,98189.09
2018-07-27T02:06:16.023Z,98184.48
2018-07-27T02:08:28.239Z,98176.61
2018-07-27T02:10:40.495Z,98184.88
2018-07-27T02:12:52.676Z,98181.02
2018-07-27T02:15:06.083Z,98183.78
2018-07-27T02:17:18.291Z,98187.73
2018-07-27T02:19:30.438Z,98189.28
2018-07-27T02:21:42.666Z,98188.41
2018-07-27T02:23:54.838Z,98183.31
2018-07-27T02:26:07.017Z,98180.67
2018-07-27T02:28:19.194Z,98179.73
2018-07-27T02:30:31.409Z,98181.45
2018-07-27T02:32:43.628Z,98183.82
2018-07-27T02:34:55.823Z,98183.56
2018-07-27T02:37:07.982Z,98179.21
2018-07-27T02:39:20.196Z,98180.02
2018-07-27T02:41:32.386Z,98176.38
2018-07-27T02:43:44.609Z,98178.65
2018-07-27T02:45:56.811Z,98174.66
2018-07-27T02:48:09.022Z,98167.45
2018-07-27T02:50:21.199Z,98172.85
2018-07-27T02:52:33.407Z,98171.53
2018-07-27T02:54:45.598Z,98169.92
2018-07-27T02:56:57.806Z,98166.88
2018-07-27T02:59:10.052Z,98169.51
2018-07-27T03:01:22.322Z,98160.91
2018-07-27T03:03:34.503Z,98157.98
2018-07-27T03:05:46.694Z,98160.17
2018-07-27T03:07:58.886Z,98161.82
2018-07-27T03:10:11.100Z,98159.68
2018-07-27T03:12:23.287Z,98159.05
2018-07-27T03:14:35.442Z,98156.95
2018-07-27T03:16:47.703Z,98151.92
2018-07-27T03:18:59.945Z,98151.55
2018-07-27T03:21:12.163Z,98150.38
2018-07-27T03:23:24.350Z,98150.33
2018-07-27T03:25:36.583Z,98146.71
2018-07-27T03:27:48.763Z,98147.61
2018-07-27T03:30:00.981Z,98144.35
2018-07-27T03:32:13.170Z,98143.09
2018-07-27T03:34:25.343Z,98139.59
2018-07-27T03:36:37.588Z,98144.53
2018-07-27T03:38:49.766Z,98137.95
2018-07-27T03:41:02.044Z,98137.45
2018-07-27T03:43:14.241Z,98140.87
2018-07-27T03:45:26.499Z,98140.47
2018-07-27T03:47:38.695Z,98135.41
2018-07-27T03:49:50.890Z,98135.38
2018-07-27T03:52:03.172Z,98128.59
2018-07-27T03:54:15.399Z,98135.00
2018-07-27T03:56:27.637Z,98127.10
2018-07-27T03:58:39.849Z,98127.10
2018-07-27T04:00:52.034Z,98133.52
2018-07-27T04:03:04.373Z,98135.28
2018-07-27T04:05:16.538Z,98139.73
2018-07-27T04:07:28.776Z,98137.59
2018-07-27T04:09:40.958Z,98138.74
2018-07-27T04:11:53.199Z,98135.48
2018-07-27T04:14:05.429Z,98136.02
2018-07-27T04:16:17.598Z,98133.93
2018-07-27T04:18:29.808Z,98130.64
2018-07-27T04:20:42.032Z,98128.70
2018-07-27T04:22:54.295Z,98130.88
2018-07-27T04:25:06.490Z,98131.91
2018-07-27T04:27:18.871Z,98132.41
2018-07-27T04:29:31.055Z,98130.55
2018-07-27T04:31:43.250Z,98129.23
2018-07-27T04:33:55.435Z,98129.91
2018-07-27T04:36:07.669Z,98128.33
2018-07-27T04:38:19.848Z,98127.59
2018-07-27T04:40:32.070Z,98123.08
2018-07-27T04:42:44.274Z,98124.96
2018-07-27T04:44:56.494Z,98129.48
2018-07-27T04:47:08.755Z,98127.23
2018-07-27T04:49:21.012Z,98127.77
2018-07-27T04:51:33.227Z,98131.75
2018-07-27T04:53:45.398Z,98124.53
2018-07-27T04:55:57.616Z,98124.38
2018-07-27T04:58:10.074Z,98125.45
2018-07-27T05:00:22.406Z,98120.10
2018-07-27T05:02:34.631Z,98121.78
2018-07-27T05:04:47.072Z,98120.84
2018-07-27T05:06:59.259Z,98125.63
2018-07-27T05:09:17.211Z,98128.45
2018-07-27T05:11:29.398Z,98127.48
2018-07-27T05:13:41.580Z,98127.23
2018-07-27T05:15:53.812Z,98134.45
2018-07-27T05:18:06.011Z,98128.24
2018-07-27T05:20:18.371Z,98132.45
2018-07-27T05:22:30.559Z,98127.27
2018-07-27T05:24:42.777Z,98123.38
2018-07-27T05:26:54.954Z,98127.69
2018-07-27T05:29:07.189Z,98133.71
2018-07-27T05:31:19.411Z,98132.44
2018-07-27T05:33:31.607Z,98134.77
2018-07-27T05:35:43.774Z,98130.67
2018-07-27T05:37:55.983Z,98131.82
2018-07-27T05:40:08.155Z,98132.50
2018-07-27T05:42:20.402Z,98137.81
2018-07-27T05:44:32.584Z,98136.16
2018-07-27T05:46:44.776Z,98129.56
2018-07-27T05:48:56.989Z,98132.69
2018-07-27T05:51:09.203Z,98128.89
2018-07-27T05:53:21.411Z,98132.52
2018-07-27T05:55:33.594Z,98131.52
2018-07-27T05:57:45.815Z,98128.70
2018-07-27T05:59:58.004Z,98131.95
2018-07-27T06:02:10.601Z,98131.13
2018-07-27T06:04:22.827Z,98132.62
2018-07-27T06:06:35.070Z,98134.09
2018-07-27T06:08:47.311Z,98137.52
2018-07-27T06:10:59.536Z,98138.19
2018-07-27T06:13:11.835Z,98137.80
2018-07-27T06:15:24.114Z,98143.22
2018-07-27T06:17:36.311Z,98142.14
2018-07-27T06:19:48.493Z,98150.67
2018-07-27T06:22:00.680Z,98143.04
2018-07-27T06:24:12.913Z,98144.65
2018-07-27T06:26:25.086Z,98141.14
2018-07-27T06:28:37.270Z,98138.90
2018-07-27T06:30:49.489Z,98143.39
2018-07-27T06:33:02.542Z,98137.50
2018-07-27T06:35:14.804Z,98141.39
2018-07-27T06:37:27.031Z,98145.90
2018-07-27T06:39:40.307Z,98147.99
2018-07-27T06:41:52.552Z,98144.06
2018-07-27T06:44:05.067Z,98142.13
2018-07-27T06:46:17.282Z,98146.02
2018-07-27T06:48:29.481Z,98145.39
2018-07-27T06:50:41.674Z,98143.94
2018-07-27T06:52:53.895Z,98147.08
2018-07-27T06:55:06.133Z,98145.75
2018-07-27T06:57:18.337Z,98153.12
2018-07-27T06:59:30.513Z,98157.60
2018-07-27T07:01:43.628Z,98157.81
2018-07-27T07:03:55.835Z,98154.81
2018-07-27T07:06:08.007Z,98154.35
2018-07-27T07:08:20.220Z,98153.03
2018-07-27T07:10:32.912Z,98150.84
2018-07-27T07:12:45.159Z,98157.00
2018-07-27T07:14:57.382Z,98154.30
2018-07-27T07:17:09.591Z,98153.11
2018-07-27T07:19:21.812Z,98152.16
2018-07-27T07:21:34.222Z,98156.64
2018-07-27T07:23:46.441Z,98151.87
2018-07-27T07:25:58.981Z,98146.30
2018-07-27T07:28:10.908Z,98158.03
2018-07-27T07:30:23.133Z,98152.70
2018-07-27T07:32:35.347Z,98151.38
2018-07-27T07:34:47.531Z,98153.27
2018-07-27T07:36:59.722Z,98151.27
2018-07-27T07:39:12.605Z,98149.63
2018-07-27T07:41:24.759Z,98154.42
2018-07-27T07:43:36.995Z,98149.92
2018-07-27T07:45:49.199Z,98147.92
2018-07-27T07:48:01.379Z,98145.22
2018-07-27T07:50:13.597Z,98136.61
2018-07-27T07:52:25.865Z,98132.95
2018-07-27T07:54:38.111Z,98135.71
2018-07-27T07:56:50.290Z,98135.81
2018-07-27T07:59:02.956Z,98130.56
2018-07-27T08:01:15.177Z,98131.64
2018-07-27T08:03:27.394Z,98132.79
2018-07-27T08:05:39.678Z,98135.99
2018-07-27T08:07:51.832Z,98133.25
2018-07-27T08:10:04.119Z,98128.66
2018-07-27T08:12:16.290Z,98126.12
2018-07-27T08:14:28.494Z,98127.72
2018-07-27T08:16:40.722Z,98133.10
2018-07-27T08:18:52.892Z,98125.11
2018-07-27T08:21:05.169Z,98127.52
2018-07-27T08:23:17.364Z,98126.16
2018-07-27T08:25:39.725Z,98122.00
2018-07-27T08:28:03.999Z,98123.34
2018-07-27T08:30:16.254Z,98119.76
2018-07-27T08:32:28.449Z,98110.66
2018-07-27T08:34:40.938Z,98115.05
2018-07-27T08:36:53.190Z,98109.93
2018-07-27T08:39:07.419Z,98116.63
2018-07-27T08:41:19.634Z,98111.43
2018-07-27T08:43:31.854Z,98115.50
2018-07-27T08:45:44.056Z,98108.34
2018-07-27T08:47:56.280Z,98104.07
2018-07-27T08:50:08.467Z,98096.70
2018-07-27T08:52:20.719Z,98100.20
2018-07-27T08:54:32.974Z,98105.28
2018-07-27T08:56:45.190Z,98099.11
2018-07-27T08:58:57.419Z,98094.62
2018-07-27T09:01:09.799Z,98095.78
2018-07-27T09:03:22.019Z,98092.42
2018-07-27T09:05:34.231Z,98091.58
2018-07-27T09:07:46.493Z,98093.41
2018-07-27T09:09:58.718Z,98093.23
2018-07-27T09:12:10.902Z,98093.06
2018-07-27T09:14:23.165Z,98097.73
2018-07-27T09:16:35.396Z,98103.05
2018-07-27T09:18:47.670Z,98097.05
2018-07-27T09:20:59.902Z,98099.35
2018-07-27T09:23:12.090Z,98089.42
2018-07-27T09:25:24.434Z,98091.22
2018-07-27T09:27:36.502Z,98085.67
2018-07-27T09:29:48.782Z,98086.80
2018-07-27T09:32:00.975Z,98087.09
2018-07-27T09:34:13.238Z,98085.42
2018-07-27T09:36:25.427Z,98080.41
2018-07-27T09:38:37.638Z,98081.27
2018-07-27T09:40:49.951Z,98084.59
2018-07-27T09:43:02.166Z,98075.46
2018-07-27T09:45:14.391Z,98072.12
2018-07-27T09:47:26.592Z,98079.22
2018-07-27T09:49:38.831Z,98073.59
2018-07-27T09:51:51.071Z,98073.64
2018-07-27T09:54:03.286Z,98077.08
2018-07-27T09:56:15.520Z,98073.58
2018-07-27T09:58:27.798Z,98070.07
2018-07-27T10:00:45.678Z,98070.48
2018-07-27T10:02:57.927Z,98073.27
2018-07-27T10:05:10.145Z,98069.06
2018-07-27T10:07:22.367Z,98071.38
2018-07-27T10:09:34.557Z,98081.21
2018-07-27T10:11:46.776Z,98063.77
2018-07-27T10:13:59.019Z,98071.77
2018-07-27T10:16:11.180Z,98066.19
2018-07-27T10:18:23.448Z,98060.02
2018-07-27T10:20:35.614Z,98064.84
2018-07-27T10:22:47.830Z,98058.25
2018-07-27T10:25:00.063Z,98060.95
2018-07-27T10:27:12.256Z,98057.86
2018-07-27T10:29:24.515Z,98058.64
2018-07-27T10:31:36.715Z,98055.25
2018-07-27T10:33:48.962Z,98053.65
2018-07-27T10:36:01.218Z,98049.39
2018-07-27T10:38:13.453Z,98047.96
2018-07-27T10:40:25.656Z,98047.03
2018-07-27T10:42:37.990Z,98049.59
2018-07-27T10:44:50.180Z,98044.20
2018-07-27T10:47:02.422Z,98038.34
2018-07-27T10:49:14.941Z,98041.16
2018-07-27T10:51:27.166Z,98036.48
2018-07-27T10:53:39.362Z,98034.05
2018-07-27T10:55:51.622Z,98034.37
2018-07-27T10:58:03.879Z,98021.11
2018-07-27T11:00:16.430Z,98028.33
2018-07-27T11:02:28.700Z,98020.94
2018-07-27T11:04:40.868Z,98025.36
2018-07-27T11:06:53.115Z,98017.23
2018-07-27T11:09:07.603Z,98016.34
2018-07-27T11:11:19.823Z,98021.63
2018-07-27T11:13:32.030Z,98019.50
2018-07-27T11:15:44.219Z,98025.43
2018-07-27T11:17:56.435Z,98021.09
2018-07-27T11:20:08.762Z,98018.98
2018-07-27T11:22:21.000Z,98013.25
2018-07-27T11:24:33.222Z,98017.29
2018-07-27T11:26:45.438Z,98009.02
2018-07-27T11:28:57.654Z,98007.30
2018-07-27T11:31:09.867Z,98008.73
2018-07-27T11:33:22.131Z,98005.11
2018-07-27T11:35:34.351Z,98009.74
2018-07-27T11:37:46.542Z,98012.22
2018-07-27T11:39:58.779Z,98014.00
2018-07-27T11:42:11.013Z,98011.72
2018-07-27T11:44:23.235Z,98000.91
2018-07-27T11:46:35.439Z,98003.80
2018-07-27T11:48:50.333Z,98006.48
2018-07-27T11:51:02.560Z,98001.56
2018-07-27T11:53:14.842Z,98006.41
2018-07-27T11:55:27.047Z,98003.87
2018-07-27T11:57:39.290Z,98005.05
2018-07-27T11:59:51.521Z,98000.90
2018-07-27T12:02:03.806Z,97994.20
2018-07-27T12:04:16.502Z,97993.83
2018-07-27T12:06:28.738Z,97995.90
2018-07-27T12:08:40.977Z,97999.03
2018-07-27T12:10:53.210Z,97992.27
2018-07-27T12:13:05.818Z,97994.95
2018-07-27T12:15:18.324Z,97990.92
2018-07-27T12:17:30.297Z,97992.42
2018-07-27T12:19:42.525Z,97991.52
2018-07-27T12:21:54.763Z,97988.69
2018-07-27T12:24:06.976Z,97988.83
2018-07-27T12:26:19.175Z,97992.84
2018-07-27T12:28:31.403Z,97993.81
2018-07-27T12:30:43.750Z,97985.99
2018-07-27T12:32:56.014Z,97980.78
2018-07-27T12:35:08.239Z,97974.81
2018-07-27T12:37:20.813Z,97974.81
2018-07-27T12:39:33.022Z,97973.27
2018-07-27T12:41:45.261Z,97977.06
2018-07-27T12:43:57.495Z,97979.21
2018-07-27T12:46:09.746Z,97975.45
2018-07-27T12:48:22.016Z,97985.40
2018-07-27T12:50:34.196Z,97981.25
2018-07-27T12:52:46.438Z,97973.79
2018-07-27T12:54:58.641Z,97968.21
2018-07-27T12:57:10.855Z,97959.67
2018-07-27T12:59:23.122Z,97968.84
2018-07-27T13:01:35.368Z,97961.71
2018-07-27T13:03:48.726Z,97963.23
2018-07-27T13:06:01.745Z,97963.58
2018-07-27T13:08:14.097Z,97959.64
2018-07-27T13:10:27.448Z,97951.53
2018-07-27T13:12:40.411Z,97952.42
2018-07-27T13:14:52.631Z,97947.12
2018-07-27T13:17:04.862Z,97942.80
2018-07-27T13:19:17.113Z,97940.34
2018-07-27T13:21:31.057Z,97946.44
2018-07-27T13:23:56.559Z,97941.55
2018-07-27T13:26:25.310Z,97937.92
2018-07-27T13:28:22.661Z,97935.61
2018-07-27T13:30:34.946Z,97929.70
2018-07-27T13:32:47.188Z,97928.89
2018-07-27T13:35:00.128Z,97929.98
2018-07-27T13:37:12.774Z,97933.97
2018-07-27T13:39:25.015Z,97926.44
2018-07-27T13:41:37.248Z,97924.92
2018-07-27T13:43:50.202Z,97916.91
2018-07-27T13:46:02.397Z,97913.74
2018-07-27T13:48:14.615Z,97912.39
2018-07-27T13:50:26.841Z,97905.83
2018-07-27T13:52:40.547Z,97905.70
2018-07-27T13:54:53.276Z,97904.61
2018-07-27T13:57:06.000Z,97906.76
2018-07-27T13:59:18.614Z,97903.17
2018-07-27T14:01:30.911Z,97904.17
2018-07-27T14:03:43.142Z,97899.58
2018-07-27T14:05:55.489Z,97897.16
2018-07-27T14:08:07.806Z,97892.73
2018-07-27T14:10:20.506Z,97888.11
2018-07-27T14:12:33.207Z,97890.57
2018-07-27T14:14:45.402Z,97897.73
2018-07-27T14:16:57.698Z,97894.81
2018-07-27T14:19:13.938Z,97884.85
2018-07-27T14:21:26.161Z,97882.80
2018-07-27T14:23:38.436Z,97880.61
2018-07-27T14:25:50.679Z,97880.11
2018-07-27T14:28:02.877Z,97878.60
2018-07-27T14:30:15.658Z,97878.50
2018-07-27T14:32:27.960Z,97878.44
2018-07-27T14:34:40.226Z,97874.41
2018-07-27T14:36:52.482Z,97875.69
2018-07-27T14:39:11.063Z,97876.98
2018-07-27T14:41:23.320Z,97868.94
2018-07-27T14:43:35.883Z,97870.56
2018-07-27T14:45:48.130Z,97870.03
2018-07-27T14:48:00.358Z,97868.69
2018-07-27T14:50:12.792Z,97868.45
2018-07-27T14:52:25.085Z,97863.08
2018-07-27T14:54:37.451Z,97858.77
2018-07-27T14:56:49.722Z,97859.30
2018-07-27T14:59:02.064Z,97854.16
2018-07-27T15:01:14.353Z,97854.47
2018-07-27T15:03:27.574Z,97850.72
2018-07-27T15:05:39.830Z,97850.55
2018-07-27T15:07:55.782Z,97848.33
2018-07-27T15:10:08.695Z,97843.84
2018-07-27T15:12:21.918Z,97847.44
2018-07-27T15:14:34.102Z,97838.86
2018-07-27T15:16:46.319Z,97841.80
2018-07-27T15:18:58.519Z,97837.77
2018-07-27T15:21:10.750Z,97836.95
2018-07-27T15:23:23.028Z,97831.06
2018-07-27T15:25:35.231Z,97826.30
2018-07-27T15:27:49.298Z,97822.27
2018-07-27T15:30:01.564Z,97830.42
2018-07-27T15:32:14.751Z,97826.99
2018-07-27T15:34:26.983Z,97825.94
2018-07-27T15:36:39.307Z,97823.53
2018-07-27T15:38:51.581Z,97819.97
2018-07-27T15:41:03.778Z,97820.75
2018-07-27T15:43:16.598Z,97817.53
2018-07-27T15:45:28.790Z,97817.89
2018-07-27T15:47:41.024Z,97818.95
2018-07-27T15:49:53.232Z,97814.86
2018-07-27T15:52:05.450Z,97809.14
2018-07-27T15:54:17.697Z,97809.31
2018-07-27T15:56:29.987Z,97814.87
2018-07-27T15:58:42.284Z,97810.73
2018-07-27T16:00:54.524Z,97807.24
2018-07-27T16:03:11.713Z,97807.81
2018-07-27T16:05:23.993Z,97809.61
2018-07-27T16:07:36.260Z,97808.27
2018-07-27T16:09:48.491Z,97808.16
2018-07-27T16:12:00.661Z,97795.03
2018-07-27T16:14:12.896Z,97799.52
2018-07-27T16:16:25.166Z,97790.27
2018-07-27T16:18:37.402Z,97791.96
2018-07-27T16:20:52.395Z,97791.89
2018-07-27T16:23:04.611Z,97788.09
2018-07-27T16:25:16.854Z,97783.03
2018-07-27T16:27:29.227Z,97783.14
2018-07-27T16:29:41.455Z,97783.28
2018-07-27T16:31:53.693Z,97784.91
2018-07-27T16:34:06.005Z,97783.28
2018-07-27T16:36:18.218Z,97783.28
2018-07-27T16:38:30.439Z,97784.66
2018-07-27T16:40:42.687Z,97782.50
2018-07-27T16:42:54.895Z,97780.28
2018-07-27T16:45:07.300Z,97784.84
2018-07-27T16:47:19.544Z,97784.44
2018-07-27T16:49:31.790Z,97780.34
2018-07-27T16:51:44.023Z,97783.28
2018-07-27T16:53:56.250Z,97782.22
2018-07-27T16:56:08.516Z,97777.95
2018-07-27T16:58:20.813Z,97777.55
2018-07-27T17:00:33.090Z,97783.48
2018-07-27T17:02:45.332Z,97785.98
2018-07-27T17:05:01.163Z,97780.09
2018-07-27T17:07:13.514Z,97784.64
2018-07-27T17:09:25.825Z,97779.98
2018-07-27T17:11:38.374Z,97782.92
2018-07-27T17:13:50.541Z,97786.77
2018-07-27T17:16:03.004Z,97784.41
2018-07-27T17:18:15.215Z,97785.72
2018-07-27T17:20:27.455Z,97782.09
2018-07-27T17:22:39.683Z,97785.58
2018-07-27T17:24:51.903Z,97784.55
2018-07-27T17:27:04.162Z,97787.23
2018-07-27T17:29:16.462Z,97779.47
2018-07-27T17:31:32.514Z,97775.73
2018-07-27T17:33:44.715Z,97780.36
2018-07-27T17:35:56.985Z,97778.42
2018-07-27T17:38:09.254Z,97780.81
2018-07-27T17:40:21.467Z,97773.83
2018-07-27T17:42:33.750Z,97772.80
2018-07-27T17:44:45.979Z,97774.84
2018-07-27T17:46:58.215Z,97788.02
2018-07-27T17:49:10.445Z,97789.98
2018-07-27T17:51:22.690Z,97796.52
2018-07-27T17:53:34.921Z,97796.83
2018-07-27T17:55:47.138Z,97793.03
2018-07-27T17:57:59.457Z,97801.36
2018-07-27T18:00:11.703Z,97803.68
2018-07-27T18:02:23.951Z,97806.55
2018-07-27T18:04:36.211Z,97808.79
2018-07-27T18:06:48.423Z,97800.80
2018-07-27T18:09:00.657Z,97809.75
2018-07-27T18:11:13.069Z,97804.55
2018-07-27T18:13:26.197Z,97801.14
2018-07-27T18:15:39.353Z,97805.95
2018-07-27T18:17:52.534Z,97805.00
2018-07-27T18:20:08.711Z,97801.95
2018-07-27T18:22:21.963Z,97806.03
2018-07-27T18:24:34.287Z,97812.52
2018-07-27T18:26:46.505Z,97808.36
2018-07-27T18:28:58.737Z,97811.53
2018-07-27T18:31:10.934Z,97809.91
2018-07-27T18:33:23.205Z,97812.50
2018-07-27T18:35:35.414Z,97812.64
2018-07-27T18:37:47.692Z,97811.88
2018-07-27T18:39:59.884Z,97805.39
2018-07-27T18:42:12.118Z,97803.77
2018-07-27T18:44:24.367Z,97809.75
2018-07-27T18:46:37.656Z,97806.11
2018-07-27T18:48:49.902Z,97810.33
2018-07-27T18:51:02.712Z,97808.60
2018-07-27T18:53:14.942Z,97808.23
2018-07-27T18:55:27.186Z,97814.47
2018-07-27T18:57:39.460Z,97813.69
2018-07-27T18:59:51.830Z,97808.78
2018-07-27T19:02:04.265Z,97811.20
2018-07-27T19:04:16.467Z,97814.42
2018-07-27T19:06:28.693Z,97814.95
2018-07-27T19:08:40.967Z,97813.22
2018-07-27T19:10:53.222Z,97814.36
2018-07-27T19:13:05.503Z,97822.41
2018-07-27T19:15:17.718Z,97819.55
2018-07-27T19:17:29.888Z,97818.86
2018-07-27T19:19:42.100Z,97823.48
2018-07-27T19:21:54.328Z,97826.69
2018-07-27T19:24:06.579Z,97829.61
2018-07-27T19:26:18.846Z,97823.48
2018-07-27T19:28:31.070Z,97822.66
2018-07-27T19:30:43.318Z,97822.05
2018-07-27T19:32:55.551Z,97817.36
2018-07-27T19:35:07.883Z,97829.08
2018-07-27T19:37:20.128Z,97823.09
2018-07-27T19:39:32.379Z,97828.27
2018-07-27T19:41:44.591Z,97830.93
2018-07-27T19:43:56.969Z,97831.23
2018-07-27T19:46:09.177Z,97833.61
2018-07-27T19:48:21.411Z,97833.80
2018-07-27T19:50:33.625Z,97835.55
2018-07-27T19:52:45.870Z,97833.09
2018-07-27T19:54:58.098Z,97833.83
2018-07-27T19:57:10.306Z,97836.28
2018-07-27T19:59:22.574Z,97826.03
2018-07-27T20:01:34.768Z,97828.81
2018-07-27T20:03:46.995Z,97828.81
2018-07-27T20:05:59.229Z,97832.33
2018-07-27T20:08:11.440Z,97826.48
2018-07-27T20:10:23.701Z,97821.85
2018-07-27T20:12:35.957Z,97819.00
2018-07-27T20:14:48.212Z,97824.52
2018-07-27T20:17:00.465Z,97820.45
2018-07-27T20:19:12.902Z,97818.59
2018-07-27T20:21:25.153Z,97819.11
2018-07-27T20:23:37.436Z,97819.19
2018-07-27T20:25:49.763Z,97824.52
2018-07-27T20:28:02.014Z,97822.70
2018-07-27T20:30:14.307Z,97820.34
2018-07-27T20:32:26.502Z,97816.75
2018-07-27T20:34:38.743Z,97825.67
2018-07-27T20:36:51.033Z,97825.04
2018-07-27T20:39:05.662Z,97824.03
2018-07-27T20:41:17.927Z,97827.70
2018-07-27T20:43:30.171Z,97828.11
2018-07-27T20:45:42.443Z,97829.14
2018-07-27T20:47:54.647Z,97827.63
2018-07-27T20:50:07.634Z,97827.88
2018-07-27T20:52:19.879Z,97829.61
2018-07-27T20:54:32.157Z,97825.64
2018-07-27T20:56:44.426Z,97832.19
2018-07-27T20:58:56.652Z,97831.25
2018-07-27T21:01:08.918Z,97826.95
2018-07-27T21:03:21.219Z,97827.23
2018-07-27T21:05:33.528Z,97821.81
2018-07-27T21:07:45.838Z,97820.35
2018-07-27T21:09:58.032Z,97818.70
2018-07-27T21:12:10.256Z,97821.06
2018-07-27T21:14:22.572Z,97823.09
2018-07-27T21:16:34.875Z,97823.39
2018-07-27T21:18:47.128Z,97828.63
2018-07-27T21:20:59.387Z,97824.38
2018-07-27T21:23:11.650Z,97827.84
2018-07-27T21:25:23.852Z,97827.64
2018-07-27T21:27:36.121Z,97829.46
2018-07-27T21:29:48.324Z,97824.53
2018-07-27T21:32:00.646Z,97825.74
2018-07-27T21:34:13.019Z,97826.98
2018-07-27T21:36:25.297Z,97828.31
2018-07-27T21:38:37.603Z,97829.64
2018-07-27T21:40:49.855Z,97823.39
2018-07-27T21:43:02.077Z,97826.14
2018-07-27T21:45:14.277Z,97828.56
2018-07-27T21:47:26.519Z,97827.31
2018-07-27T21:49:38.803Z,97819.94
2018-07-27T21:51:51.028Z,97819.39
2018-07-27T21:54:03.293Z,97821.50
2018-07-27T21:56:15.538Z,97819.31
2018-07-27T21:58:27.839Z,97823.95
2018-07-27T22:00:40.220Z,97818.94
2018-07-27T22:02:52.481Z,97815.34
2018-07-27T22:05:04.928Z,97819.27
2018-07-27T22:07:17.171Z,97815.88
2018-07-27T22:09:29.448Z,97811.53
2018-07-27T22:11:41.747Z,97816.72
2018-07-27T22:13:54.055Z,97817.83
2018-07-27T22:16:06.277Z,97805.17
2018-07-27T22:18:18.535Z,97807.09
2018-07-27T22:20:30.738Z,97807.72
2018-07-27T22:22:42.954Z,97802.42
2018-07-27T22:24:55.226Z,97808.79
2018-07-27T22:27:07.418Z,97805.52
2018-07-27T22:29:19.660Z,97802.22
2018-07-27T22:31:31.938Z,97802.09
2018-07-27T22:33:44.167Z,97794.84
2018-07-27T22:35:56.422Z,97796.23
2018-07-27T22:38:08.666Z,97795.90
2018-07-27T22:40:20.935Z,97793.06
2018-07-27T22:42:33.126Z,97793.14
2018-07-27T22:44:45.350Z,97793.82
2018-07-27T22:46:57.579Z,97798.55
2018-07-27T22:49:09.790Z,97792.05
2018-07-27T22:51:22.040Z,97780.99
2018-07-27T22:53:34.200Z,97785.28
2018-07-27T22:55:46.459Z,97779.80
2018-07-27T22:57:58.703Z,97766.02
2018-07-27T23:00:13.130Z,97765.44
2018-07-27T23:02:25.486Z,97761.97
2018-07-27T23:04:37.688Z,97768.22
2018-07-27T23:06:49.915Z,97763.09
2018-07-27T23:09:02.150Z,97765.27
2018-07-27T23:11:14.353Z,97764.92
2018-07-27T23:13:26.585Z,97774.28
2018-07-27T23:15:38.771Z,97779.59
2018-07-27T23:17:51.278Z,97775.55
2018-07-27T23:20:06.554Z,97774.66
2018-07-27T23:22:18.821Z,97774.69
2018-07-27T23:24:31.021Z,97775.58
2018-07-27T23:26:43.289Z,97773.63
2018-07-27T23:28:55.535Z,97769.23
2018-07-27T23:31:07.840Z,97776.89
2018-07-27T23:33:20.086Z,97767.87
2018-07-27T23:35:32.299Z,97770.69
2018-07-27T23:37:44.587Z,97769.67
2018-07-27T23:39:56.802Z,97760.08
2018-07-27T23:42:09.026Z,97762.20
2018-07-27T23:44:21.267Z,97757.69
2018-07-27T23:46:33.478Z,97751.06
2018-07-27T23:48:45.698Z,97752.41
2018-07-27T23:50:57.878Z,97749.91
2018-07-27T23:53:10.155Z,97743.98
2018-07-27T23:55:22.568Z,97751.29
2018-07-27T23:57:34.772Z,97745.03
2018-07-27T23:59:47.046Z,97747.03
